Time;durP1;ratioP1;P1;durP2;ratioP2;P2;SDS_P1;SDS_P2;PMS_P1;PMS_P2;Temp;Humidity;BMP_temperature;BMP_pressure;BME280_temperature;BME280_humidity;BME280_pressure;Samples;Min_cycle;Max_cycle;Signal;HPM_P1;HPM_P2
2022/10/08 00:04:39;;;;;;;15.37;7.67;;;13.10;99.90;;;;;;21094088;28;20047;-79
2022/10/08 00:14:40;;;;;;;18.30;8.07;;;12.90;99.90;;;;;;21091111;28;20063;-79
2022/10/08 00:24:41;;;;;;;20.47;7.47;;;12.90;99.90;;;;;;21036801;28;20043;-80
2022/10/08 00:34:42;;;;;;;18.17;8.13;;;12.90;99.90;;;;;;21111749;28;20488;-79
2022/10/08 00:44:45;;;;;;;14.50;8.30;;;12.50;99.90;;;;;;21063315;28;20474;-79
2022/10/08 00:54:49;;;;;;;15.63;8.82;;;12.50;99.90;;;;;;21068355;28;20400;-79
2022/10/08 01:04:49;;;;;;;22.52;9.65;;;12.50;99.90;;;;;;21118467;28;20036;-79
2022/10/08 01:15:08;;;;;;;22.17;10.67;;;12.50;99.90;;;;;;21098989;28;20039;-79
2022/10/08 01:25:34;;;;;;;22.75;11.27;;;12.70;99.90;;;;;;21120783;28;20089;-79
2022/10/08 01:35:36;;;;;;;21.77;10.00;;;12.50;99.90;;;;;;21181677;28;20036;-80
2022/10/08 01:45:41;;;;;;;13.25;8.45;;;12.50;99.90;;;;;;21159393;28;20044;-79
2022/10/08 01:55:49;;;;;;;17.00;9.55;;;12.40;99.90;;;;;;21178769;28;20510;-79
2022/10/08 02:05:54;;;;;;;17.73;9.23;;;12.30;99.90;;;;;;21146363;22;20047;-74
2022/10/08 02:16:09;;;;;;;15.32;8.85;;;12.40;99.90;;;;;;21078925;28;20382;-74
2022/10/08 02:26:14;;;;;;;22.73;11.40;;;12.20;99.90;;;;;;21078301;28;20465;-75
2022/10/08 02:36:21;;;;;;;46.97;13.80;;;12.50;99.90;;;;;;21059097;28;20051;-74
2022/10/08 02:46:26;;;;;;;144.25;20.45;;;12.40;99.90;;;;;;21077535;28;20046;-74
2022/10/08 02:56:30;;;;;;;137.48;21.63;;;12.30;99.90;;;;;;21075706;28;20488;-74
2022/10/08 03:06:33;;;;;;;33.83;20.60;;;12.20;99.90;;;;;;21074729;28;20122;-73
2022/10/08 03:16:39;;;;;;;32.92;18.73;;;12.30;99.90;;;;;;21073950;28;20686;-74
2022/10/08 03:26:40;;;;;;;40.63;18.35;;;12.50;99.90;;;;;;21074050;28;20050;-74
2022/10/08 03:36:41;;;;;;;61.97;20.57;;;12.50;99.90;;;;;;21073573;28;20040;-74
2022/10/08 03:46:42;;;;;;;54.07;21.33;;;12.50;99.90;;;;;;21073444;28;20068;-74
2022/10/08 03:56:42;;;;;;;65.77;22.43;;;12.60;99.90;;;;;;21072874;28;20549;-74
2022/10/08 04:06:43;;;;;;;52.47;22.83;;;12.60;99.90;;;;;;21072361;28;20056;-74
2022/10/08 04:16:44;;;;;;;41.40;22.37;;;12.50;99.90;;;;;;21072900;28;20086;-74
2022/10/08 04:26:45;;;;;;;58.03;23.63;;;12.60;99.90;;;;;;21074598;28;20051;-74
2022/10/08 04:36:45;;;;;;;50.67;23.27;;;12.50;99.90;;;;;;21086796;28;20036;-74
2022/10/08 04:46:46;;;;;;;46.20;21.83;;;12.40;99.90;;;;;;21086361;28;20032;-74
2022/10/08 04:56:47;;;;;;;40.90;21.00;;;12.50;99.90;;;;;;21067075;28;20071;-74
2022/10/08 05:06:48;;;;;;;41.47;19.47;;;12.60;99.90;;;;;;21084370;28;20563;-74
2022/10/08 05:16:49;;;;;;;41.83;19.90;;;12.60;99.90;;;;;;21083718;28;20043;-74
2022/10/08 05:26:51;;;;;;;41.03;21.07;;;12.70;99.90;;;;;;21082744;28;20343;-74
2022/10/08 05:36:51;;;;;;;46.92;21.92;;;12.60;99.90;;;;;;21081439;28;20095;-74
2022/10/08 05:46:52;;;;;;;43.63;20.90;;;12.70;99.90;;;;;;21081091;28;20036;-74
2022/10/08 05:56:53;;;;;;;66.30;21.90;;;12.60;99.90;;;;;;21062316;28;20075;-74
2022/10/08 06:06:54;;;;;;;82.27;25.67;;;12.60;99.90;;;;;;21079510;28;20510;-74
2022/10/08 06:16:54;;;;;;;42.87;22.27;;;12.40;99.90;;;;;;21044026;28;20525;-74
2022/10/08 06:26:55;;;;;;;74.17;21.37;;;12.60;99.90;;;;;;21078253;28;20044;-74
2022/10/08 06:36:56;;;;;;;59.07;21.83;;;12.90;99.90;;;;;;21077062;28;20044;-74
2022/10/08 06:46:56;;;;;;;39.13;19.90;;;13.00;99.90;;;;;;21058419;28;20051;-74
2022/10/08 06:56:57;;;;;;;21.43;13.67;;;13.30;99.90;;;;;;21075799;28;20043;-75
2022/10/08 07:06:58;;;;;;;33.60;17.77;;;13.20;99.90;;;;;;21075355;28;20046;-74
2022/10/08 07:16:59;;;;;;;35.13;17.90;;;13.20;99.90;;;;;;21056366;28;20071;-75
2022/10/08 07:27:00;;;;;;;34.80;18.70;;;13.50;99.90;;;;;;21075431;28;20039;-75
2022/10/08 07:37:00;;;;;;;39.17;19.83;;;13.70;99.90;;;;;;21076839;28;20410;-76
2022/10/08 07:47:01;;;;;;;39.97;21.00;;;13.70;99.90;;;;;;21055492;28;20036;-75
2022/10/08 07:57:02;;;;;;;38.03;19.67;;;13.80;99.90;;;;;;21072759;28;20082;-76
2022/10/08 08:07:03;;;;;;;43.67;21.50;;;14.20;99.90;;;;;;21073861;22;20072;-77
2022/10/08 08:17:04;;;;;;;41.70;19.83;;;14.30;99.90;;;;;;20981025;28;20040;-78
2022/10/08 08:27:04;;;;;;;41.67;22.07;;;14.30;99.90;;;;;;20934426;28;20099;-77
2022/10/08 08:37:05;;;;;;;38.67;20.30;;;14.30;99.90;;;;;;20966577;28;20163;-78
2022/10/08 08:47:27;;;;;;;28.40;16.30;;;14.80;99.90;;;;;;20990484;28;20048;-77
2022/10/08 08:57:54;;;;;;;28.40;13.52;;;15.50;99.90;;;;;;20943986;28;20074;-78
2022/10/08 09:08:04;;;;;;;24.27;12.88;;;15.70;99.90;;;;;;20991958;28;20044;-78
2022/10/08 09:18:05;;;;;;;25.27;13.73;;;15.50;99.90;;;;;;21004306;28;20115;-78
2022/10/08 09:28:06;;;;;;;23.43;11.13;;;15.40;99.90;;;;;;21012701;28;20043;-78
2022/10/08 09:38:25;;;;;;;14.37;8.70;;;15.60;99.90;;;;;;21007616;28;20562;-77
2022/10/08 09:48:28;;;;;;;17.20;6.43;;;15.50;99.90;;;;;;20997076;28;20354;-78
2022/10/08 09:58:32;;;;;;;48.15;16.60;;;15.60;99.90;;;;;;20983633;28;20049;-78
2022/10/08 10:08:52;;;;;;;15.48;7.68;;;15.70;99.90;;;;;;20947763;28;20048;-79
2022/10/08 10:19:03;;;;;;;13.02;5.65;;;15.60;99.90;;;;;;21004058;28;20040;-77
2022/10/08 10:29:09;;;;;;;13.13;6.10;;;15.50;99.90;;;;;;20994771;28;20052;-77
2022/10/08 10:39:22;;;;;;;12.07;5.55;;;15.50;99.90;;;;;;20951041;28;20180;-77
2022/10/08 10:49:31;;;;;;;12.43;5.32;;;15.50;99.90;;;;;;20993127;28;20045;-76
2022/10/08 10:59:43;;;;;;;22.05;5.72;;;15.40;99.90;;;;;;20967015;28;20124;-76
2022/10/08 11:10:01;;;;;;;19.20;6.55;;;15.20;99.90;;;;;;20933917;28;20062;-77
2022/10/08 11:20:21;;;;;;;19.50;7.82;;;15.20;99.90;;;;;;20984118;28;20052;-77
2022/10/08 11:30:38;;;;;;;15.88;6.88;;;14.90;99.90;;;;;;20990690;28;20071;-77
2022/10/08 11:40:46;;;;;;;20.23;5.45;;;14.80;99.90;;;;;;20946742;28;20120;-77
2022/10/08 11:50:47;;;;;;;12.43;5.15;;;15.00;99.90;;;;;;20972173;28;20161;-77
2022/10/08 12:00:52;;;;;;;8.63;4.10;;;15.40;99.90;;;;;;20990196;28;20374;-77
2022/10/08 12:10:52;;;;;;;9.73;4.07;;;15.70;99.90;;;;;;20955180;28;20402;-77
2022/10/08 12:21:15;;;;;;;8.50;4.47;;;15.80;99.90;;;;;;20918111;28;20033;-76
2022/10/08 12:31:22;;;;;;;10.13;4.80;;;16.00;99.90;;;;;;20962327;28;20040;-77
2022/10/08 12:41:32;;;;;;;8.35;2.95;;;16.50;99.90;;;;;;20951243;28;20059;-76
2022/10/08 12:51:42;;;;;;;6.28;2.85;;;17.00;99.90;;;;;;20913075;28;20048;-77
2022/10/08 13:01:45;;;;;;;7.00;2.00;;;16.70;99.90;;;;;;20918715;28;20061;-76
2022/10/08 13:11:46;;;;;;;5.35;2.75;;;17.30;99.90;;;;;;20901381;28;20049;-77
2022/10/08 13:21:54;;;;;;;6.80;2.40;;;17.90;99.90;;;;;;20904958;28;20447;-77
2022/10/08 13:32:10;;;;;;;7.47;2.60;;;17.60;99.90;;;;;;20921398;28;20068;-77
2022/10/08 13:42:17;;;;;;;13.88;2.53;;;17.70;99.90;;;;;;20977763;28;20056;-77
2022/10/08 13:52:20;;;;;;;4.35;1.52;;;18.70;99.90;;;;;;20980071;28;20032;-77
2022/10/08 14:02:22;;;;;;;3.65;1.77;;;17.70;99.90;;;;;;21004038;28;20037;-77
2022/10/08 14:12:25;;;;;;;4.33;2.23;;;18.00;99.90;;;;;;21088143;22;20060;-74
2022/10/08 14:22:26;;;;;;;5.05;2.15;;;17.30;99.90;;;;;;21078921;28;20078;-74
2022/10/08 14:32:26;;;;;;;6.57;2.63;;;17.10;99.90;;;;;;21077513;28;20513;-73
2022/10/08 14:42:27;;;;;;;6.43;2.10;;;17.80;99.90;;;;;;21077236;28;20036;-74
2022/10/08 14:52:28;;;;;;;6.50;2.00;;;18.00;99.90;;;;;;21088911;28;20046;-75
2022/10/08 15:02:29;;;;;;;14.57;1.93;;;18.10;99.90;;;;;;21163350;28;20031;-74
2022/10/08 15:12:30;;;;;;;9.60;2.40;;;17.90;99.90;;;;;;21110210;28;20552;-74
2022/10/08 15:22:31;;;;;;;13.23;5.50;;;18.10;99.90;;;;;;21071546;28;20032;-75
2022/10/08 15:32:31;;;;;;;6.70;2.23;;;17.50;99.90;;;;;;21044872;28;20079;-75
2022/10/08 15:42:32;;;;;;;2.83;1.77;;;17.80;99.90;;;;;;21088782;28;20387;-76
2022/10/08 15:52:33;;;;;;;4.57;1.90;;;17.20;99.90;;;;;;21036506;28;20036;-75
2022/10/08 16:02:34;;;;;;;8.40;2.00;;;17.10;99.90;;;;;;21046717;28;20044;-75
2022/10/08 16:12:35;;;;;;;7.20;1.87;;;17.00;99.90;;;;;;21068857;28;20406;-76
2022/10/08 16:22:35;;;;;;;17.43;1.80;;;16.90;99.90;;;;;;21067728;28;20056;-75
2022/10/08 16:32:36;;;;;;;2.83;1.67;;;16.70;99.90;;;;;;21070699;28;20567;-75
2022/10/08 16:42:37;;;;;;;11.20;2.97;;;16.50;99.90;;;;;;21092410;28;20508;-75
2022/10/08 16:52:38;;;;;;;6.13;2.50;;;16.20;99.90;;;;;;21066976;28;20046;-75
2022/10/08 17:02:38;;;;;;;4.83;1.70;;;16.00;99.90;;;;;;21090189;28;20039;-73
2022/10/08 17:12:40;;;;;;;65.13;31.87;;;15.50;99.90;;;;;;21084135;28;20036;-74
2022/10/08 17:22:41;;;;;;;16.77;8.80;;;14.30;99.90;;;;;;21083510;28;20044;-73
2022/10/08 17:32:41;;;;;;;11.47;3.83;;;13.50;99.90;;;;;;21091110;28;20036;-73
2022/10/08 17:42:42;;;;;;;6.87;3.67;;;13.00;99.90;;;;;;21114686;28;20047;-73
2022/10/08 17:52:43;;;;;;;6.70;3.73;;;13.10;99.90;;;;;;21077787;28;20491;-73
2022/10/08 18:02:45;;;;;;;8.80;3.50;;;13.30;99.90;;;;;;21077170;28;20090;-73
2022/10/08 18:12:45;;;;;;;;;;;13.00;99.90;;;;;;21076120;28;20040;-73
2022/10/08 18:22:46;;;;;;;12.20;4.73;;;13.20;99.90;;;;;;21058082;28;19916;-74
2022/10/08 18:32:47;;;;;;;11.10;3.67;;;13.10;99.90;;;;;;21083989;28;20031;-73
2022/10/08 18:42:48;;;;;;;;;;;12.80;99.90;;;;;;21113640;28;20028;-73
2022/10/08 18:52:49;;;;;;;7.13;3.13;;;12.70;99.90;;;;;;21037553;28;19915;-76
2022/10/08 19:02:53;;;;;;;8.60;3.33;;;12.50;99.90;;;;;;21072642;28;20442;-76
2022/10/08 19:12:53;;;;;;;10.32;3.65;;;12.50;99.90;;;;;;21071123;28;20433;-75
2022/10/08 19:22:54;;;;;;;9.77;3.00;;;12.20;99.90;;;;;;21052545;28;20036;-77
2022/10/08 19:32:55;;;;;;;8.53;3.20;;;12.20;99.90;;;;;;21081189;28;20043;-76
2022/10/08 19:42:56;;;;;;;11.33;3.43;;;12.10;99.90;;;;;;21105416;28;20115;-77
2022/10/08 19:52:56;;;;;;;5.43;3.03;;;11.90;99.90;;;;;;21080693;28;20089;-76
2022/10/08 20:02:57;;;;;;;8.00;3.20;;;11.50;99.90;;;;;;21097846;28;20040;-77
2022/10/08 20:12:58;;;;;;;8.97;3.43;;;11.50;99.90;;;;;;21067056;28;20044;-77
2022/10/08 20:22:59;;;;;;;7.33;3.60;;;11.40;99.90;;;;;;21084468;28;20042;-76
2022/10/08 20:32:59;;;;;;;8.77;2.50;;;11.50;99.90;;;;;;21111104;28;20096;-76
2022/10/08 20:43:00;;;;;;;7.87;2.73;;;11.20;99.90;;;;;;21095199;28;20036;-76
2022/10/08 20:53:01;;;;;;;12.37;3.03;;;11.30;99.90;;;;;;21082670;28;20395;-76
2022/10/08 21:03:02;;;;;;;10.30;3.10;;;11.00;99.90;;;;;;21081697;28;20047;-75
2022/10/08 21:13:03;;;;;;;6.13;3.20;;;10.90;99.90;;;;;;21078202;28;20092;-76
2022/10/08 21:23:04;;;;;;;8.07;3.25;;;10.70;99.90;;;;;;21080813;28;20293;-76
2022/10/08 21:33:05;;;;;;;10.23;2.93;;;10.70;99.90;;;;;;21091907;28;20059;-77
2022/10/08 21:43:06;;;;;;;7.17;3.10;;;10.70;99.90;;;;;;21109385;28;20068;-76
2022/10/08 21:53:06;;;;;;;5.30;2.67;;;10.30;99.90;;;;;;21082430;28;20036;-76
2022/10/08 22:03:07;;;;;;;7.90;2.87;;;10.30;99.90;;;;;;21058442;28;20044;-76
2022/10/08 22:13:08;;;;;;;7.10;3.07;;;10.50;99.90;;;;;;21075773;28;20036;-76
2022/10/08 22:23:09;;;;;;;8.73;3.00;;;10.80;99.90;;;;;;21075317;28;20441;-76
2022/10/08 22:33:10;;;;;;;9.03;2.80;;;10.80;99.90;;;;;;21085298;28;20418;-76
2022/10/08 22:43:10;;;;;;;7.13;3.00;;;10.80;99.90;;;;;;21108385;28;20497;-76
2022/10/08 22:53:12;;;;;;;4.73;1.63;;;11.00;99.90;;;;;;21049261;28;20127;-76
2022/10/08 23:03:12;;;;;;;;;;;11.10;99.90;;;;;;21062786;28;20051;-77
2022/10/08 23:13:13;;;;;;;4.23;2.13;;;11.10;99.90;;;;;;21079163;28;19912;-76
2022/10/08 23:23:14;;;;;;;8.50;2.63;;;11.30;99.90;;;;;;21077893;28;20541;-77
2022/10/08 23:33:15;;;;;;;13.20;2.77;;;11.30;99.90;;;;;;21161160;28;20043;-77
2022/10/08 23:43:16;;;;;;;3.67;2.10;;;11.20;99.90;;;;;;21115514;28;20054;-77
2022/10/08 23:53:18;;;;;;;6.37;1.93;;;11.20;99.90;;;;;;21118736;28;20024;-77
